sensor_id;sensor_type;location;lat;lon;timestamp;temperature;humidity
10121;DHT22;5100;45.176;5.714;2022-12-18T00:01:23;6.90;68.10
10121;DHT22;5100;45.176;5.714;2022-12-18T00:03:52;6.90;68.10
10121;DHT22;5100;45.176;5.714;2022-12-18T00:06:20;6.90;68.30
10121;DHT22;5100;45.176;5.714;2022-12-18T00:08:46;6.90;68.40
10121;DHT22;5100;45.176;5.714;2022-12-18T00:11:18;6.90;68.50
10121;DHT22;5100;45.176;5.714;2022-12-18T00:13:44;6.90;68.50
10121;DHT22;5100;45.176;5.714;2022-12-18T00:16:13;6.90;68.50
10121;DHT22;5100;45.176;5.714;2022-12-18T00:18:40;6.90;68.50
10121;DHT22;5100;45.176;5.714;2022-12-18T00:21:07;6.90;68.50
10121;DHT22;5100;45.176;5.714;2022-12-18T00:23:35;6.90;68.50
10121;DHT22;5100;45.176;5.714;2022-12-18T00:26:04;6.90;68.50
10121;DHT22;5100;45.176;5.714;2022-12-18T00:28:30;6.90;68.50
10121;DHT22;5100;45.176;5.714;2022-12-18T00:31:01;6.90;68.50
10121;DHT22;5100;45.176;5.714;2022-12-18T00:33:28;6.90;68.50
10121;DHT22;5100;45.176;5.714;2022-12-18T00:35:54;6.90;68.40
10121;DHT22;5100;45.176;5.714;2022-12-18T00:38:20;6.90;68.30
10121;DHT22;5100;45.176;5.714;2022-12-18T00:40:46;6.80;68.40
10121;DHT22;5100;45.176;5.714;2022-12-18T00:43:12;6.90;68.40
10121;DHT22;5100;45.176;5.714;2022-12-18T00:45:38;6.90;68.40
10121;DHT22;5100;45.176;5.714;2022-12-18T00:48:05;6.90;68.40
10121;DHT22;5100;45.176;5.714;2022-12-18T00:50:31;6.80;68.40
10121;DHT22;5100;45.176;5.714;2022-12-18T00:53:00;6.80;68.30
10121;DHT22;5100;45.176;5.714;2022-12-18T00:55:26;6.80;68.30
10121;DHT22;5100;45.176;5.714;2022-12-18T00:57:52;6.80;68.30
10121;DHT22;5100;45.176;5.714;2022-12-18T01:00:18;6.80;68.40
10121;DHT22;5100;45.176;5.714;2022-12-18T01:02:45;6.80;68.40
10121;DHT22;5100;45.176;5.714;2022-12-18T01:05:13;6.80;68.40
10121;DHT22;5100;45.176;5.714;2022-12-18T01:07:40;6.80;68.20
10121;DHT22;5100;45.176;5.714;2022-12-18T01:10:08;6.80;68.30
10121;DHT22;5100;45.176;5.714;2022-12-18T01:12:35;6.80;68.40
10121;DHT22;5100;45.176;5.714;2022-12-18T01:15:01;6.80;68.40
10121;DHT22;5100;45.176;5.714;2022-12-18T01:17:28;6.80;68.40
10121;DHT22;5100;45.176;5.714;2022-12-18T01:19:54;6.80;68.30
10121;DHT22;5100;45.176;5.714;2022-12-18T01:22:20;6.80;68.30
10121;DHT22;5100;45.176;5.714;2022-12-18T01:24:47;6.80;68.10
10121;DHT22;5100;45.176;5.714;2022-12-18T01:27:13;6.80;68.20
10121;DHT22;5100;45.176;5.714;2022-12-18T01:29:39;6.80;68.20
10121;DHT22;5100;45.176;5.714;2022-12-18T01:32:05;6.70;68.30
10121;DHT22;5100;45.176;5.714;2022-12-18T01:34:31;6.70;68.40
10121;DHT22;5100;45.176;5.714;2022-12-18T01:36:57;6.70;68.40
10121;DHT22;5100;45.176;5.714;2022-12-18T01:39:24;6.70;68.40
10121;DHT22;5100;45.176;5.714;2022-12-18T01:41:50;6.70;68.30
10121;DHT22;5100;45.176;5.714;2022-12-18T01:47:18;6.70;68.30
10121;DHT22;5100;45.176;5.714;2022-12-18T01:49:46;6.60;68.30
10121;DHT22;5100;45.176;5.714;2022-12-18T01:52:12;6.60;68.30
10121;DHT22;5100;45.176;5.714;2022-12-18T01:54:39;6.60;68.20
10121;DHT22;5100;45.176;5.714;2022-12-18T01:57:06;6.60;68.20
10121;DHT22;5100;45.176;5.714;2022-12-18T01:59:33;6.60;68.20
10121;DHT22;5100;45.176;5.714;2022-12-18T02:02:02;6.60;68.20
10121;DHT22;5100;45.176;5.714;2022-12-18T02:04:29;6.60;68.10
10121;DHT22;5100;45.176;5.714;2022-12-18T02:12:23;6.60;68.20
10121;DHT22;5100;45.176;5.714;2022-12-18T02:17:57;6.50;68.10
10121;DHT22;5100;45.176;5.714;2022-12-18T02:21:35;6.50;68.10
10121;DHT22;5100;45.176;5.714;2022-12-18T02:23:56;6.50;68.20
10121;DHT22;5100;45.176;5.714;2022-12-18T02:26:32;6.50;68.30
10121;DHT22;5100;45.176;5.714;2022-12-18T02:29:08;6.50;68.30
10121;DHT22;5100;45.176;5.714;2022-12-18T02:31:42;6.50;68.30
10121;DHT22;5100;45.176;5.714;2022-12-18T02:34:11;6.50;68.30
10121;DHT22;5100;45.176;5.714;2022-12-18T02:36:40;6.50;68.30
10121;DHT22;5100;45.176;5.714;2022-12-18T02:39:10;6.50;68.30
10121;DHT22;5100;45.176;5.714;2022-12-18T02:41:39;6.50;68.20
10121;DHT22;5100;45.176;5.714;2022-12-18T02:44:10;6.50;68.20
10121;DHT22;5100;45.176;5.714;2022-12-18T02:46:39;6.50;68.20
10121;DHT22;5100;45.176;5.714;2022-12-18T03:00:05;6.60;68.20
10121;DHT22;5100;45.176;5.714;2022-12-18T03:02:45;6.60;68.20
10121;DHT22;5100;45.176;5.714;2022-12-18T03:07:49;6.60;68.10
10121;DHT22;5100;45.176;5.714;2022-12-18T03:10:21;6.60;67.90
10121;DHT22;5100;45.176;5.714;2022-12-18T03:13:21;6.60;67.80
10121;DHT22;5100;45.176;5.714;2022-12-18T03:15:56;6.60;67.80
10121;DHT22;5100;45.176;5.714;2022-12-18T03:18:36;6.60;67.90
10121;DHT22;5100;45.176;5.714;2022-12-18T03:21:06;6.60;67.80
10121;DHT22;5100;45.176;5.714;2022-12-18T03:23:44;6.60;67.80
10121;DHT22;5100;45.176;5.714;2022-12-18T03:26:15;6.60;67.70
10121;DHT22;5100;45.176;5.714;2022-12-18T03:28:47;6.60;67.70
10121;DHT22;5100;45.176;5.714;2022-12-18T03:31:19;6.50;67.70
10121;DHT22;5100;45.176;5.714;2022-12-18T03:33:52;6.50;67.50
10121;DHT22;5100;45.176;5.714;2022-12-18T03:36:23;6.50;67.50
10121;DHT22;5100;45.176;5.714;2022-12-18T03:38:50;6.50;67.60
10121;DHT22;5100;45.176;5.714;2022-12-18T03:44:19;6.50;67.70
10121;DHT22;5100;45.176;5.714;2022-12-18T03:47:14;6.50;67.50
10121;DHT22;5100;45.176;5.714;2022-12-18T03:55:17;6.50;67.40
10121;DHT22;5100;45.176;5.714;2022-12-18T03:57:46;6.40;67.40
10121;DHT22;5100;45.176;5.714;2022-12-18T04:00:16;6.40;67.40
10121;DHT22;5100;45.176;5.714;2022-12-18T04:02:52;6.40;67.40
10121;DHT22;5100;45.176;5.714;2022-12-18T04:05:22;6.40;67.50
10121;DHT22;5100;45.176;5.714;2022-12-18T04:07:51;6.40;67.50
10121;DHT22;5100;45.176;5.714;2022-12-18T04:10:18;6.40;67.60
10121;DHT22;5100;45.176;5.714;2022-12-18T04:12:44;6.40;67.60
10121;DHT22;5100;45.176;5.714;2022-12-18T04:15:13;6.30;67.70
10121;DHT22;5100;45.176;5.714;2022-12-18T04:17:46;6.30;67.70
10121;DHT22;5100;45.176;5.714;2022-12-18T04:20:14;6.30;67.70
10121;DHT22;5100;45.176;5.714;2022-12-18T04:22:41;6.30;67.70
10121;DHT22;5100;45.176;5.714;2022-12-18T04:25:08;6.30;67.70
10121;DHT22;5100;45.176;5.714;2022-12-18T04:27:35;6.30;67.60
10121;DHT22;5100;45.176;5.714;2022-12-18T04:30:04;6.30;67.60
10121;DHT22;5100;45.176;5.714;2022-12-18T04:32:30;6.30;67.70
10121;DHT22;5100;45.176;5.714;2022-12-18T04:34:56;6.30;67.60
10121;DHT22;5100;45.176;5.714;2022-12-18T04:37:23;6.30;67.60
10121;DHT22;5100;45.176;5.714;2022-12-18T04:39:49;6.20;67.80
10121;DHT22;5100;45.176;5.714;2022-12-18T04:42:18;6.20;67.70
10121;DHT22;5100;45.176;5.714;2022-12-18T04:44:43;6.20;67.80
10121;DHT22;5100;45.176;5.714;2022-12-18T04:47:10;6.20;67.90
10121;DHT22;5100;45.176;5.714;2022-12-18T04:49:36;6.20;67.80
10121;DHT22;5100;45.176;5.714;2022-12-18T04:52:02;6.20;67.80
10121;DHT22;5100;45.176;5.714;2022-12-18T04:54:28;6.20;67.80
10121;DHT22;5100;45.176;5.714;2022-12-18T04:56:55;6.10;67.80
10121;DHT22;5100;45.176;5.714;2022-12-18T04:59:21;6.10;67.90
10121;DHT22;5100;45.176;5.714;2022-12-18T05:01:46;6.10;68.00
10121;DHT22;5100;45.176;5.714;2022-12-18T05:04:13;6.10;67.90
10121;DHT22;5100;45.176;5.714;2022-12-18T05:06:39;6.10;67.90
10121;DHT22;5100;45.176;5.714;2022-12-18T05:09:05;6.10;68.00
10121;DHT22;5100;45.176;5.714;2022-12-18T05:11:31;6.10;68.10
10121;DHT22;5100;45.176;5.714;2022-12-18T05:13:57;6.10;68.10
10121;DHT22;5100;45.176;5.714;2022-12-18T05:16:23;6.10;68.20
10121;DHT22;5100;45.176;5.714;2022-12-18T05:18:49;6.00;68.10
10121;DHT22;5100;45.176;5.714;2022-12-18T05:21:15;6.00;68.10
10121;DHT22;5100;45.176;5.714;2022-12-18T05:23:41;6.00;68.10
10121;DHT22;5100;45.176;5.714;2022-12-18T05:26:18;6.00;68.10
10121;DHT22;5100;45.176;5.714;2022-12-18T05:28:45;6.00;68.30
10121;DHT22;5100;45.176;5.714;2022-12-18T05:31:12;6.00;68.30
10121;DHT22;5100;45.176;5.714;2022-12-18T05:33:38;6.00;68.30
10121;DHT22;5100;45.176;5.714;2022-12-18T05:36:07;6.00;68.30
10121;DHT22;5100;45.176;5.714;2022-12-18T05:38:35;6.00;68.30
10121;DHT22;5100;45.176;5.714;2022-12-18T05:41:02;6.00;68.20
10121;DHT22;5100;45.176;5.714;2022-12-18T05:43:28;6.00;68.20
10121;DHT22;5100;45.176;5.714;2022-12-18T05:45:54;6.00;68.10
10121;DHT22;5100;45.176;5.714;2022-12-18T05:48:21;6.00;67.90
10121;DHT22;5100;45.176;5.714;2022-12-18T05:50:48;6.00;68.00
10121;DHT22;5100;45.176;5.714;2022-12-18T05:53:18;6.00;67.90
10121;DHT22;5100;45.176;5.714;2022-12-18T05:55:45;6.00;68.00
10121;DHT22;5100;45.176;5.714;2022-12-18T05:58:12;6.00;68.00
10121;DHT22;5100;45.176;5.714;2022-12-18T06:00:43;6.00;67.90
10121;DHT22;5100;45.176;5.714;2022-12-18T06:03:11;6.00;68.00
10121;DHT22;5100;45.176;5.714;2022-12-18T06:05:43;6.00;68.00
10121;DHT22;5100;45.176;5.714;2022-12-18T06:08:09;5.90;68.00
10121;DHT22;5100;45.176;5.714;2022-12-18T06:10:37;5.90;68.10
10121;DHT22;5100;45.176;5.714;2022-12-18T06:13:03;5.90;68.10
10121;DHT22;5100;45.176;5.714;2022-12-18T06:15:29;5.90;68.20
10121;DHT22;5100;45.176;5.714;2022-12-18T06:17:55;5.90;68.00
10121;DHT22;5100;45.176;5.714;2022-12-18T06:20:22;5.90;68.00
10121;DHT22;5100;45.176;5.714;2022-12-18T06:22:48;5.90;67.90
10121;DHT22;5100;45.176;5.714;2022-12-18T06:25:15;5.90;67.80
10121;DHT22;5100;45.176;5.714;2022-12-18T06:27:41;5.90;67.90
10121;DHT22;5100;45.176;5.714;2022-12-18T06:30:07;5.90;67.90
10121;DHT22;5100;45.176;5.714;2022-12-18T06:32:34;5.90;67.80
10121;DHT22;5100;45.176;5.714;2022-12-18T06:35:00;5.90;67.70
10121;DHT22;5100;45.176;5.714;2022-12-18T06:37:26;5.90;67.60
10121;DHT22;5100;45.176;5.714;2022-12-18T06:39:53;5.80;67.60
10121;DHT22;5100;45.176;5.714;2022-12-18T06:42:23;5.80;67.60
10121;DHT22;5100;45.176;5.714;2022-12-18T06:44:49;5.80;67.70
10121;DHT22;5100;45.176;5.714;2022-12-18T06:47:15;5.80;67.70
10121;DHT22;5100;45.176;5.714;2022-12-18T06:49:41;5.80;67.60
10121;DHT22;5100;45.176;5.714;2022-12-18T06:52:07;5.80;67.60
10121;DHT22;5100;45.176;5.714;2022-12-18T06:54:33;5.80;67.70
10121;DHT22;5100;45.176;5.714;2022-12-18T06:56:59;5.80;67.60
10121;DHT22;5100;45.176;5.714;2022-12-18T06:59:25;5.80;67.70
10121;DHT22;5100;45.176;5.714;2022-12-18T07:01:52;5.80;67.60
10121;DHT22;5100;45.176;5.714;2022-12-18T07:04:18;5.80;67.60
10121;DHT22;5100;45.176;5.714;2022-12-18T07:06:44;5.80;67.60
10121;DHT22;5100;45.176;5.714;2022-12-18T07:09:10;5.80;67.60
10121;DHT22;5100;45.176;5.714;2022-12-18T07:11:36;5.80;67.50
10121;DHT22;5100;45.176;5.714;2022-12-18T07:14:02;5.80;67.40
10121;DHT22;5100;45.176;5.714;2022-12-18T07:16:29;5.80;67.50
10121;DHT22;5100;45.176;5.714;2022-12-18T07:18:55;5.80;67.50
10121;DHT22;5100;45.176;5.714;2022-12-18T07:21:22;5.80;67.50
10121;DHT22;5100;45.176;5.714;2022-12-18T07:23:49;5.80;67.50
10121;DHT22;5100;45.176;5.714;2022-12-18T07:26:17;5.80;67.50
10121;DHT22;5100;45.176;5.714;2022-12-18T07:28:43;5.80;67.50
10121;DHT22;5100;45.176;5.714;2022-12-18T07:31:12;5.80;67.50
10121;DHT22;5100;45.176;5.714;2022-12-18T07:33:39;5.90;67.50
10121;DHT22;5100;45.176;5.714;2022-12-18T07:36:06;5.80;67.40
10121;DHT22;5100;45.176;5.714;2022-12-18T07:38:34;5.90;67.40
10121;DHT22;5100;45.176;5.714;2022-12-18T07:41:05;5.90;67.30
10121;DHT22;5100;45.176;5.714;2022-12-18T07:43:33;5.90;67.10
10121;DHT22;5100;45.176;5.714;2022-12-18T07:45:59;5.90;67.20
10121;DHT22;5100;45.176;5.714;2022-12-18T07:48:25;5.90;67.20
10121;DHT22;5100;45.176;5.714;2022-12-18T07:50:52;5.90;67.20
10121;DHT22;5100;45.176;5.714;2022-12-18T07:53:18;5.90;67.30
10121;DHT22;5100;45.176;5.714;2022-12-18T07:55:44;5.80;67.20
10121;DHT22;5100;45.176;5.714;2022-12-18T07:58:10;5.90;67.40
10121;DHT22;5100;45.176;5.714;2022-12-18T08:00:37;5.90;67.30
10121;DHT22;5100;45.176;5.714;2022-12-18T08:03:03;5.90;67.30
10121;DHT22;5100;45.176;5.714;2022-12-18T08:05:29;5.90;67.30
10121;DHT22;5100;45.176;5.714;2022-12-18T08:07:55;5.90;67.30
10121;DHT22;5100;45.176;5.714;2022-12-18T08:10:22;5.90;67.40
10121;DHT22;5100;45.176;5.714;2022-12-18T08:12:51;5.90;67.40
10121;DHT22;5100;45.176;5.714;2022-12-18T08:15:17;5.90;67.40
10121;DHT22;5100;45.176;5.714;2022-12-18T08:17:44;5.90;67.40
10121;DHT22;5100;45.176;5.714;2022-12-18T08:20:10;5.90;67.50
10121;DHT22;5100;45.176;5.714;2022-12-18T08:22:36;5.90;67.40
10121;DHT22;5100;45.176;5.714;2022-12-18T08:25:03;5.90;67.40
10121;DHT22;5100;45.176;5.714;2022-12-18T08:27:30;6.00;67.50
10121;DHT22;5100;45.176;5.714;2022-12-18T08:29:56;6.00;67.50
10121;DHT22;5100;45.176;5.714;2022-12-18T08:32:24;6.00;67.40
10121;DHT22;5100;45.176;5.714;2022-12-18T08:34:50;6.00;67.50
10121;DHT22;5100;45.176;5.714;2022-12-18T08:37:16;6.00;67.40
10121;DHT22;5100;45.176;5.714;2022-12-18T08:39:43;6.00;67.40
10121;DHT22;5100;45.176;5.714;2022-12-18T08:42:09;6.10;67.60
10121;DHT22;5100;45.176;5.714;2022-12-18T08:44:54;6.10;67.70
10121;DHT22;5100;45.176;5.714;2022-12-18T08:47:20;6.10;67.60
10121;DHT22;5100;45.176;5.714;2022-12-18T08:49:46;6.10;67.70
10121;DHT22;5100;45.176;5.714;2022-12-18T08:52:12;6.10;67.90
10121;DHT22;5100;45.176;5.714;2022-12-18T08:54:38;6.20;67.80
10121;DHT22;5100;45.176;5.714;2022-12-18T08:57:04;6.20;67.80
10121;DHT22;5100;45.176;5.714;2022-12-18T08:59:31;6.20;67.80
10121;DHT22;5100;45.176;5.714;2022-12-18T09:01:57;6.20;67.80
10121;DHT22;5100;45.176;5.714;2022-12-18T09:04:23;6.30;67.90
10121;DHT22;5100;45.176;5.714;2022-12-18T09:06:49;6.30;67.80
10121;DHT22;5100;45.176;5.714;2022-12-18T09:09:15;6.40;67.90
10121;DHT22;5100;45.176;5.714;2022-12-18T09:11:41;6.40;67.90
10121;DHT22;5100;45.176;5.714;2022-12-18T09:14:09;6.40;67.80
10121;DHT22;5100;45.176;5.714;2022-12-18T09:16:35;6.40;67.90
10121;DHT22;5100;45.176;5.714;2022-12-18T09:19:03;6.50;67.90
10121;DHT22;5100;45.176;5.714;2022-12-18T09:21:34;6.50;67.80
10121;DHT22;5100;45.176;5.714;2022-12-18T09:24:14;6.60;67.70
10121;DHT22;5100;45.176;5.714;2022-12-18T09:26:40;6.60;67.80
10121;DHT22;5100;45.176;5.714;2022-12-18T09:29:07;6.60;67.80
10121;DHT22;5100;45.176;5.714;2022-12-18T09:31:33;6.60;67.90
10121;DHT22;5100;45.176;5.714;2022-12-18T09:33:59;6.70;68.00
10121;DHT22;5100;45.176;5.714;2022-12-18T09:36:25;6.70;68.10
10121;DHT22;5100;45.176;5.714;2022-12-18T09:38:51;6.70;68.20
10121;DHT22;5100;45.176;5.714;2022-12-18T09:44:26;6.80;68.30
10121;DHT22;5100;45.176;5.714;2022-12-18T09:49:36;6.80;68.30
10121;DHT22;5100;45.176;5.714;2022-12-18T09:52:11;6.80;68.40
10121;DHT22;5100;45.176;5.714;2022-12-18T09:54:40;6.80;68.50
10121;DHT22;5100;45.176;5.714;2022-12-18T09:57:14;6.80;68.40
10121;DHT22;5100;45.176;5.714;2022-12-18T09:59:42;6.80;68.50
10121;DHT22;5100;45.176;5.714;2022-12-18T10:02:18;6.90;68.60
10121;DHT22;5100;45.176;5.714;2022-12-18T10:05:17;6.90;68.50
10121;DHT22;5100;45.176;5.714;2022-12-18T10:07:59;6.90;68.50
10121;DHT22;5100;45.176;5.714;2022-12-18T10:10:42;6.90;68.60
10121;DHT22;5100;45.176;5.714;2022-12-18T10:16:16;7.00;68.70
10121;DHT22;5100;45.176;5.714;2022-12-18T10:21:54;7.00;68.70
10121;DHT22;5100;45.176;5.714;2022-12-18T10:24:41;7.00;68.70
10121;DHT22;5100;45.176;5.714;2022-12-18T10:27:16;7.00;68.80
10121;DHT22;5100;45.176;5.714;2022-12-18T10:29:44;7.10;68.80
10121;DHT22;5100;45.176;5.714;2022-12-18T10:32:18;7.20;68.70
10121;DHT22;5100;45.176;5.714;2022-12-18T10:34:52;7.20;68.50
10121;DHT22;5100;45.176;5.714;2022-12-18T10:37:21;7.20;68.60
10121;DHT22;5100;45.176;5.714;2022-12-18T10:42:33;7.30;68.60
10121;DHT22;5100;45.176;5.714;2022-12-18T10:45:14;7.30;68.60
10121;DHT22;5100;45.176;5.714;2022-12-18T10:47:47;7.40;68.40
10121;DHT22;5100;45.176;5.714;2022-12-18T10:53:01;7.40;68.00
10121;DHT22;5100;45.176;5.714;2022-12-18T10:55:37;7.40;67.90
10121;DHT22;5100;45.176;5.714;2022-12-18T11:01:04;7.50;67.90
10121;DHT22;5100;45.176;5.714;2022-12-18T11:04:07;7.50;67.90
10121;DHT22;5100;45.176;5.714;2022-12-18T11:06:25;7.50;67.90
10121;DHT22;5100;45.176;5.714;2022-12-18T11:09:06;7.50;67.80
10121;DHT22;5100;45.176;5.714;2022-12-18T11:11:35;7.50;67.80
10121;DHT22;5100;45.176;5.714;2022-12-18T11:14:04;7.50;67.70
10121;DHT22;5100;45.176;5.714;2022-12-18T11:16:36;7.60;67.70
10121;DHT22;5100;45.176;5.714;2022-12-18T11:25:28;7.70;67.40
10121;DHT22;5100;45.176;5.714;2022-12-18T11:27:59;7.70;67.20
10121;DHT22;5100;45.176;5.714;2022-12-18T11:30:32;7.70;67.10
10121;DHT22;5100;45.176;5.714;2022-12-18T11:35:38;7.80;67.10
10121;DHT22;5100;45.176;5.714;2022-12-18T11:38:20;7.80;67.10
10121;DHT22;5100;45.176;5.714;2022-12-18T11:41:04;7.80;67.00
10121;DHT22;5100;45.176;5.714;2022-12-18T11:43:53;7.80;66.90
10121;DHT22;5100;45.176;5.714;2022-12-18T11:46:32;7.80;66.90
10121;DHT22;5100;45.176;5.714;2022-12-18T11:49:12;7.80;66.70
10121;DHT22;5100;45.176;5.714;2022-12-18T11:54:18;7.80;66.60
10121;DHT22;5100;45.176;5.714;2022-12-18T11:56:51;7.80;66.70
10121;DHT22;5100;45.176;5.714;2022-12-18T12:02:39;7.80;66.60
10121;DHT22;5100;45.176;5.714;2022-12-18T12:05:16;7.80;66.70
10121;DHT22;5100;45.176;5.714;2022-12-18T12:08:08;7.90;66.90
10121;DHT22;5100;45.176;5.714;2022-12-18T12:10:53;7.90;67.00
10121;DHT22;5100;45.176;5.714;2022-12-18T12:13:42;7.90;67.20
10121;DHT22;5100;45.176;5.714;2022-12-18T12:16:22;7.90;67.30
10121;DHT22;5100;45.176;5.714;2022-12-18T12:21:34;7.90;67.50
10121;DHT22;5100;45.176;5.714;2022-12-18T12:29:32;8.00;67.20
10121;DHT22;5100;45.176;5.714;2022-12-18T12:32:22;8.00;67.10
10121;DHT22;5100;45.176;5.714;2022-12-18T12:40:33;8.10;67.50
10121;DHT22;5100;45.176;5.714;2022-12-18T12:43:56;8.10;67.60
10121;DHT22;5100;45.176;5.714;2022-12-18T12:46:11;8.10;67.60
10121;DHT22;5100;45.176;5.714;2022-12-18T12:48:40;8.10;67.60
10121;DHT22;5100;45.176;5.714;2022-12-18T12:51:21;8.10;67.60
10121;DHT22;5100;45.176;5.714;2022-12-18T12:53:49;8.20;67.20
10121;DHT22;5100;45.176;5.714;2022-12-18T12:56:18;8.20;66.90
10121;DHT22;5100;45.176;5.714;2022-12-18T13:09:31;8.20;66.50
10121;DHT22;5100;45.176;5.714;2022-12-18T13:12:03;8.20;66.50
10121;DHT22;5100;45.176;5.714;2022-12-18T13:14:49;8.30;66.30
10121;DHT22;5100;45.176;5.714;2022-12-18T13:20:10;8.30;65.90
10121;DHT22;5100;45.176;5.714;2022-12-18T13:22:54;8.30;65.80
10121;DHT22;5100;45.176;5.714;2022-12-18T13:28:02;8.30;66.20
10121;DHT22;5100;45.176;5.714;2022-12-18T13:35:50;8.30;66.20
10121;DHT22;5100;45.176;5.714;2022-12-18T13:38:33;8.30;66.30
10121;DHT22;5100;45.176;5.714;2022-12-18T13:41:25;8.30;66.30
10121;DHT22;5100;45.176;5.714;2022-12-18T13:43:53;8.40;66.40
10121;DHT22;5100;45.176;5.714;2022-12-18T13:46:40;8.40;66.60
10121;DHT22;5100;45.176;5.714;2022-12-18T13:51:49;8.40;67.20
10121;DHT22;5100;45.176;5.714;2022-12-18T13:56:50;8.40;67.20
10121;DHT22;5100;45.176;5.714;2022-12-18T13:59:22;8.50;67.20
10121;DHT22;5100;45.176;5.714;2022-12-18T14:01:57;8.50;67.20
10121;DHT22;5100;45.176;5.714;2022-12-18T14:04:35;8.60;67.00
10121;DHT22;5100;45.176;5.714;2022-12-18T14:07:02;8.60;66.80
10121;DHT22;5100;45.176;5.714;2022-12-18T14:09:34;8.60;66.80
10121;DHT22;5100;45.176;5.714;2022-12-18T14:12:01;8.60;66.60
10121;DHT22;5100;45.176;5.714;2022-12-18T14:14:48;8.60;66.40
10121;DHT22;5100;45.176;5.714;2022-12-18T14:17:15;8.60;66.20
10121;DHT22;5100;45.176;5.714;2022-12-18T14:19:46;8.60;66.30
10121;DHT22;5100;45.176;5.714;2022-12-18T14:22:26;8.60;66.40
10121;DHT22;5100;45.176;5.714;2022-12-18T14:27:41;8.60;66.50
10121;DHT22;5100;45.176;5.714;2022-12-18T14:30:39;8.60;66.50
10121;DHT22;5100;45.176;5.714;2022-12-18T14:38:21;8.60;66.20
10121;DHT22;5100;45.176;5.714;2022-12-18T14:43:25;8.60;66.40
10121;DHT22;5100;45.176;5.714;2022-12-18T14:45:52;8.60;66.50
10121;DHT22;5100;45.176;5.714;2022-12-18T14:50:53;8.60;66.10
10121;DHT22;5100;45.176;5.714;2022-12-18T14:53:32;8.60;65.90
10121;DHT22;5100;45.176;5.714;2022-12-18T14:55:58;8.60;65.80
10121;DHT22;5100;45.176;5.714;2022-12-18T14:58:24;8.60;65.80
10121;DHT22;5100;45.176;5.714;2022-12-18T15:00:50;8.60;66.00
10121;DHT22;5100;45.176;5.714;2022-12-18T15:03:21;8.60;66.10
10121;DHT22;5100;45.176;5.714;2022-12-18T15:05:48;8.60;66.20
10121;DHT22;5100;45.176;5.714;2022-12-18T15:08:32;8.60;66.30
10121;DHT22;5100;45.176;5.714;2022-12-18T15:11:00;8.60;66.60
10121;DHT22;5100;45.176;5.714;2022-12-18T15:13:26;8.60;66.80
10121;DHT22;5100;45.176;5.714;2022-12-18T15:15:54;8.60;67.00
10121;DHT22;5100;45.176;5.714;2022-12-18T15:18:30;8.60;67.10
10121;DHT22;5100;45.176;5.714;2022-12-18T15:21:09;8.60;67.40
10121;DHT22;5100;45.176;5.714;2022-12-18T15:23:50;8.60;67.60
10121;DHT22;5100;45.176;5.714;2022-12-18T15:26:19;8.60;67.70
10121;DHT22;5100;45.176;5.714;2022-12-18T15:28:51;8.60;67.80
10121;DHT22;5100;45.176;5.714;2022-12-18T15:31:22;8.60;67.80
10121;DHT22;5100;45.176;5.714;2022-12-18T15:36:20;8.60;67.90
10121;DHT22;5100;45.176;5.714;2022-12-18T15:38:47;8.50;67.90
10121;DHT22;5100;45.176;5.714;2022-12-18T15:41:15;8.50;67.90
10121;DHT22;5100;45.176;5.714;2022-12-18T15:43:41;8.50;67.80
10121;DHT22;5100;45.176;5.714;2022-12-18T15:46:17;8.50;67.90
10121;DHT22;5100;45.176;5.714;2022-12-18T15:49:04;8.50;68.00
10121;DHT22;5100;45.176;5.714;2022-12-18T15:51:35;8.50;68.00
10121;DHT22;5100;45.176;5.714;2022-12-18T15:54:06;8.50;68.30
10121;DHT22;5100;45.176;5.714;2022-12-18T15:56:35;8.50;68.40
10121;DHT22;5100;45.176;5.714;2022-12-18T15:59:20;8.50;68.40
10121;DHT22;5100;45.176;5.714;2022-12-18T16:01:48;8.50;68.30
10121;DHT22;5100;45.176;5.714;2022-12-18T16:04:18;8.50;68.30
10121;DHT22;5100;45.176;5.714;2022-12-18T16:06:46;8.50;68.40
10121;DHT22;5100;45.176;5.714;2022-12-18T16:09:12;8.40;68.60
10121;DHT22;5100;45.176;5.714;2022-12-18T16:11:42;8.40;68.70
10121;DHT22;5100;45.176;5.714;2022-12-18T16:14:20;8.40;68.80
10121;DHT22;5100;45.176;5.714;2022-12-18T16:16:50;8.40;68.80
10121;DHT22;5100;45.176;5.714;2022-12-18T16:19:17;8.40;68.90
10121;DHT22;5100;45.176;5.714;2022-12-18T16:21:44;8.40;68.90
10121;DHT22;5100;45.176;5.714;2022-12-18T16:24:23;8.30;68.90
10121;DHT22;5100;45.176;5.714;2022-12-18T16:26:50;8.40;69.10
10121;DHT22;5100;45.176;5.714;2022-12-18T16:29:18;8.30;69.10
10121;DHT22;5100;45.176;5.714;2022-12-18T16:31:44;8.30;69.10
10121;DHT22;5100;45.176;5.714;2022-12-18T16:34:31;8.30;69.10
10121;DHT22;5100;45.176;5.714;2022-12-18T16:37:04;8.30;69.10
10121;DHT22;5100;45.176;5.714;2022-12-18T16:39:30;8.30;69.20
10121;DHT22;5100;45.176;5.714;2022-12-18T16:41:57;8.20;69.20
10121;DHT22;5100;45.176;5.714;2022-12-18T16:44:24;8.20;69.40
10121;DHT22;5100;45.176;5.714;2022-12-18T16:46:50;8.20;69.30
10121;DHT22;5100;45.176;5.714;2022-12-18T16:49:17;8.20;69.20
10121;DHT22;5100;45.176;5.714;2022-12-18T16:51:45;8.20;69.20
10121;DHT22;5100;45.176;5.714;2022-12-18T16:54:11;8.20;69.20
10121;DHT22;5100;45.176;5.714;2022-12-18T16:56:37;8.20;69.10
10121;DHT22;5100;45.176;5.714;2022-12-18T16:59:04;8.10;69.10
10121;DHT22;5100;45.176;5.714;2022-12-18T17:01:31;8.10;69.10
10121;DHT22;5100;45.176;5.714;2022-12-18T17:04:00;8.10;69.10
10121;DHT22;5100;45.176;5.714;2022-12-18T17:06:29;8.10;69.10
10121;DHT22;5100;45.176;5.714;2022-12-18T17:08:56;8.10;69.20
10121;DHT22;5100;45.176;5.714;2022-12-18T17:11:30;8.10;69.10
10121;DHT22;5100;45.176;5.714;2022-12-18T17:13:57;8.10;69.20
10121;DHT22;5100;45.176;5.714;2022-12-18T17:16:23;8.10;69.10
10121;DHT22;5100;45.176;5.714;2022-12-18T17:18:51;8.10;69.10
10121;DHT22;5100;45.176;5.714;2022-12-18T17:21:17;8.10;69.10
10121;DHT22;5100;45.176;5.714;2022-12-18T17:23:44;8.10;69.20
10121;DHT22;5100;45.176;5.714;2022-12-18T17:26:11;8.10;69.20
10121;DHT22;5100;45.176;5.714;2022-12-18T17:28:39;8.10;69.30
10121;DHT22;5100;45.176;5.714;2022-12-18T17:31:14;8.10;69.50
10121;DHT22;5100;45.176;5.714;2022-12-18T17:33:42;8.10;69.60
10121;DHT22;5100;45.176;5.714;2022-12-18T17:36:08;8.10;69.70
10121;DHT22;5100;45.176;5.714;2022-12-18T17:38:35;8.00;69.80
10121;DHT22;5100;45.176;5.714;2022-12-18T17:41:03;8.10;69.80
10121;DHT22;5100;45.176;5.714;2022-12-18T17:43:29;8.10;69.80
10121;DHT22;5100;45.176;5.714;2022-12-18T17:45:55;8.10;69.70
10121;DHT22;5100;45.176;5.714;2022-12-18T17:48:22;8.10;69.80
10121;DHT22;5100;45.176;5.714;2022-12-18T17:50:48;8.10;69.80
10121;DHT22;5100;45.176;5.714;2022-12-18T17:53:15;8.10;69.80
10121;DHT22;5100;45.176;5.714;2022-12-18T17:55:41;8.10;69.80
10121;DHT22;5100;45.176;5.714;2022-12-18T17:58:07;8.10;69.80
10121;DHT22;5100;45.176;5.714;2022-12-18T18:00:33;8.10;69.80
10121;DHT22;5100;45.176;5.714;2022-12-18T18:02:59;8.10;69.80
10121;DHT22;5100;45.176;5.714;2022-12-18T18:05:25;8.10;69.70
10121;DHT22;5100;45.176;5.714;2022-12-18T18:07:51;8.10;69.80
10121;DHT22;5100;45.176;5.714;2022-12-18T18:10:17;8.10;69.90
10121;DHT22;5100;45.176;5.714;2022-12-18T18:12:43;8.10;69.90
10121;DHT22;5100;45.176;5.714;2022-12-18T18:15:28;8.10;69.80
10121;DHT22;5100;45.176;5.714;2022-12-18T18:17:54;8.10;69.80
10121;DHT22;5100;45.176;5.714;2022-12-18T18:20:20;8.10;69.80
10121;DHT22;5100;45.176;5.714;2022-12-18T18:22:46;8.10;69.90
10121;DHT22;5100;45.176;5.714;2022-12-18T18:25:12;8.10;69.80